Time;durP1;ratioP1;P1;durP2;ratioP2;P2;SDS_P1;SDS_P2;PMS_P1;PMS_P2;Temp;Humidity;BMP_temperature;BMP_pressure;BME280_temperature;BME280_humidity;BME280_pressure;Samples;Min_cycle;Max_cycle;Signal;HPM_P1;HPM_P2
2023/01/23 00:00:45;;;;;;;44.05;27.17;;;6.10;99.90;;;;;;5093094;28;20252;-88
2023/01/23 00:03:11;;;;;;;36.90;24.08;;;6.10;99.90;;;;;;5092933;28;20238;-83
2023/01/23 00:05:36;;;;;;;41.40;27.87;;;6.10;99.90;;;;;;5092790;28;20180;-83
2023/01/23 00:08:02;;;;;;;36.60;25.57;;;6.10;99.90;;;;;;5094318;28;20192;-88
2023/01/23 00:10:28;;;;;;;37.30;23.70;;;6.10;99.90;;;;;;5094156;28;20545;-86
2023/01/23 00:12:53;;;;;;;28.50;19.70;;;6.10;99.90;;;;;;5094488;28;20208;-82
2023/01/23 00:15:19;;;;;;;29.17;18.10;;;6.10;99.90;;;;;;5096240;28;20191;-87
2023/01/23 00:17:45;;;;;;;31.90;20.57;;;6.10;99.90;;;;;;5095025;28;20980;-83
2023/01/23 00:20:11;;;;;;;56.37;32.53;;;6.10;99.90;;;;;;5102198;28;20690;-86
2023/01/23 00:22:38;;;;;;;44.53;29.98;;;6.10;99.90;;;;;;5105978;28;20192;-83
2023/01/23 00:25:05;;;;;;;35.80;24.05;;;6.20;99.90;;;;;;5099869;28;20230;-82
2023/01/23 00:27:31;;;;;;;34.58;21.85;;;6.20;99.90;;;;;;5100608;28;20188;-89
2023/01/23 00:29:57;;;;;;;29.88;20.77;;;6.20;99.90;;;;;;5099530;28;20577;-88
2023/01/23 00:32:23;;;;;;;29.90;19.80;;;6.20;99.90;;;;;;5099311;28;20246;-89
2023/01/23 00:34:49;;;;;;;32.47;19.05;;;6.20;99.90;;;;;;5100738;28;20263;-84
2023/01/23 00:37:15;;;;;;;27.80;19.33;;;6.20;99.90;;;;;;5100554;28;20696;-87
2023/01/23 00:39:41;;;;;;;29.40;19.23;;;6.20;99.90;;;;;;5099312;28;20176;-88
2023/01/23 00:42:07;;;;;;;43.43;28.43;;;6.10;99.90;;;;;;5100840;28;20716;-88
2023/01/23 00:44:33;;;;;;;43.58;29.48;;;6.20;99.90;;;;;;5099781;28;20432;-88
2023/01/23 00:46:59;;;;;;;50.80;30.80;;;6.20;99.90;;;;;;5100735;28;20211;-89
2023/01/23 00:49:25;;;;;;;39.72;25.95;;;6.30;99.90;;;;;;5099577;28;20176;-83
2023/01/23 00:51:53;;;;;;;38.10;24.57;;;6.40;99.90;;;;;;5099004;28;20807;-83
2023/01/23 00:54:20;;;;;;;41.60;25.85;;;6.40;99.90;;;;;;5100834;28;20495;-83
2023/01/23 00:56:46;;;;;;;36.90;24.40;;;6.40;99.90;;;;;;5099101;28;20693;-89
2023/01/23 00:59:12;;;;;;;36.50;23.10;;;6.40;99.90;;;;;;5106311;28;20176;-83
2023/01/23 01:01:38;;;;;;;33.58;21.60;;;6.50;99.90;;;;;;5100475;28;20177;-82
2023/01/23 01:04:04;;;;;;;37.27;24.63;;;6.50;99.90;;;;;;5100875;28;20196;-83
2023/01/23 01:06:31;;;;;;;30.00;19.00;;;6.50;99.90;;;;;;5100238;28;20201;-81
2023/01/23 01:08:59;;;;;;;30.25;21.33;;;6.50;99.90;;;;;;5100195;28;20200;-88
2023/01/23 01:11:25;;;;;;;30.35;18.35;;;6.60;99.90;;;;;;5099430;28;20676;-88
2023/01/23 01:13:51;;;;;;;30.10;18.50;;;6.60;99.90;;;;;;5100674;28;20283;-88
2023/01/23 01:16:17;;;;;;;34.78;19.67;;;6.60;99.90;;;;;;5100335;28;20605;-81
2023/01/23 01:18:43;;;;;;;32.40;20.47;;;6.70;99.90;;;;;;5100535;28;20226;-88
2023/01/23 01:21:13;;;;;;;30.75;19.55;;;6.70;99.90;;;;;;5099240;28;20219;-83
2023/01/23 01:23:40;;;;;;;33.40;19.55;;;6.60;99.90;;;;;;5098842;28;20208;-89
2023/01/23 01:26:06;;;;;;;30.38;18.30;;;6.60;99.90;;;;;;5100116;28;20610;-83
2023/01/23 01:28:34;;;;;;;28.30;17.75;;;6.70;99.90;;;;;;5098214;28;20204;-83
2023/01/23 01:31:08;;;;;;;28.15;17.13;;;6.60;99.90;;;;;;5096030;28;20176;-83
2023/01/23 01:33:35;;;;;;;26.25;17.50;;;6.60;99.90;;;;;;5097592;28;20597;-83
2023/01/23 01:36:01;;;;;;;28.48;19.25;;;6.60;99.90;;;;;;5097185;28;20578;-83
2023/01/23 01:38:28;;;;;;;28.70;18.50;;;6.60;99.90;;;;;;5097251;28;20196;-89
2023/01/23 01:40:56;;;;;;;29.13;18.13;;;6.60;99.90;;;;;;5095814;28;20944;-89
2023/01/23 01:43:24;;;;;;;27.52;18.42;;;6.60;99.90;;;;;;5097409;28;20196;-83
2023/01/23 01:46:11;;;;;;;27.98;18.60;;;6.60;99.90;;;;;;5104765;28;20185;-84
2023/01/23 01:48:45;;;;;;;25.65;17.65;;;6.60;99.90;;;;;;5096709;28;20691;-89
2023/01/23 01:51:30;;;;;;;32.28;18.45;;;6.60;99.90;;;;;;5095221;28;20184;-83
2023/01/23 01:54:23;;;;;;;25.98;17.23;;;6.60;99.90;;;;;;5096914;28;20199;-89
2023/01/23 01:57:05;;;;;;;27.17;15.75;;;6.60;99.90;;;;;;5095181;28;20633;-83
2023/01/23 01:59:38;;;;;;;28.20;18.27;;;6.60;99.90;;;;;;5096424;28;20204;-84
2023/01/23 02:02:10;;;;;;;28.40;18.20;;;6.60;99.90;;;;;;5095283;28;20177;-83
2023/01/23 02:04:46;;;;;;;26.20;16.85;;;6.50;99.90;;;;;;5095601;28;20184;-83
2023/01/23 02:07:35;;;;;;;31.98;18.90;;;6.50;99.90;;;;;;5096411;28;20203;-83
2023/01/23 02:10:05;;;;;;;28.05;17.83;;;6.50;99.90;;;;;;5096163;28;20221;-83
2023/01/23 02:12:33;;;;;;;27.48;17.75;;;6.40;99.90;;;;;;5096098;28;20212;-89
2023/01/23 02:15:01;;;;;;;27.02;17.23;;;6.40;99.90;;;;;;5094932;28;20189;-83
2023/01/23 02:17:27;;;;;;;26.70;17.35;;;6.40;99.90;;;;;;5095983;28;20200;-83
2023/01/23 02:20:27;;;;;;;30.30;18.93;;;6.40;99.90;;;;;;5096182;28;20176;-82
2023/01/23 02:22:56;;;;;;;26.63;18.13;;;6.40;99.90;;;;;;5091989;28;20511;-83
2023/01/23 02:25:44;;;;;;;28.15;16.70;;;6.40;99.90;;;;;;5095933;28;20180;-88
2023/01/23 02:28:15;;;;;;;28.98;19.23;;;6.40;99.90;;;;;;5094518;28;20291;-84
2023/01/23 02:30:45;;;;;;;29.38;17.55;;;6.40;99.90;;;;;;5094877;28;20177;-83
2023/01/23 02:33:21;;;;;;;31.73;18.08;;;6.40;99.90;;;;;;5094406;28;20212;-89
2023/01/23 02:35:46;;;;;;;26.98;17.35;;;6.40;99.90;;;;;;5094588;28;20184;-82
2023/01/23 02:38:13;;;;;;;30.10;18.40;;;6.30;99.90;;;;;;5099799;28;20199;-83
2023/01/23 02:40:41;;;;;;;28.35;18.35;;;6.30;99.90;;;;;;5094305;28;20427;-88
2023/01/23 02:43:14;;;;;;;32.95;20.95;;;6.30;99.90;;;;;;5094405;28;20203;-89
2023/01/23 02:45:39;;;;;;;28.63;19.67;;;6.30;99.90;;;;;;5095432;28;20218;-82
2023/01/23 02:48:07;;;;;;;25.93;19.37;;;6.30;99.90;;;;;;5094194;28;20228;-82
2023/01/23 02:50:33;;;;;;;26.75;17.80;;;6.40;99.90;;;;;;5094208;28;20180;-88
2023/01/23 02:52:59;;;;;;;32.15;18.80;;;6.40;99.90;;;;;;5093998;28;20309;-89
2023/01/23 02:55:28;;;;;;;26.57;17.90;;;6.40;99.90;;;;;;5094131;28;20177;-82
2023/01/23 03:00:14;;;;;;;26.38;16.65;;;6.30;99.90;;;;;;5095554;28;20440;-88
2023/01/23 03:00:44;;;;;;;29.98;19.50;;;6.40;99.90;;;;;;5095511;28;20211;-83
2023/01/23 03:03:10;;;;;;;27.80;17.88;;;6.30;99.90;;;;;;5095099;28;20275;-83
2023/01/23 03:05:36;;;;;;;26.60;17.60;;;6.40;99.90;;;;;;5094291;28;20664;-87
2023/01/23 03:08:01;;;;;;;25.67;17.80;;;6.40;99.90;;;;;;5093963;28;20200;-83
2023/01/23 03:10:29;;;;;;;27.90;18.70;;;6.30;99.90;;;;;;5095114;28;20185;-88
2023/01/23 03:12:57;;;;;;;31.75;19.42;;;6.30;99.90;;;;;;5094974;28;20300;-88
2023/01/23 03:15:23;;;;;;;26.40;17.63;;;6.30;99.90;;;;;;5093678;28;20181;-89
2023/01/23 03:17:48;;;;;;;29.30;18.50;;;6.30;99.90;;;;;;5093864;28;20207;-83
2023/01/23 03:20:17;;;;;;;28.33;18.90;;;6.30;99.90;;;;;;5094943;28;20773;-83
2023/01/23 03:22:43;;;;;;;31.27;19.20;;;6.30;99.90;;;;;;5093646;28;20200;-83
2023/01/23 03:25:09;;;;;;;29.70;18.40;;;6.20;99.90;;;;;;5094885;28;20180;-88
2023/01/23 03:27:36;;;;;;;26.10;16.83;;;6.20;99.90;;;;;;5094594;28;20220;-83
2023/01/23 03:30:12;;;;;;;29.27;17.85;;;6.20;99.90;;;;;;5095367;28;20921;-89
2023/01/23 03:32:38;;;;;;;27.42;19.20;;;6.20;99.90;;;;;;5099151;28;20316;-88
2023/01/23 03:35:06;;;;;;;28.83;17.88;;;6.20;99.90;;;;;;5094703;28;20180;-89
2023/01/23 03:37:31;;;;;;;30.50;18.95;;;6.10;99.90;;;;;;5093250;28;20200;-83
2023/01/23 03:42:42;;;;;;;29.98;19.35;;;6.20;99.90;;;;;;5094571;28;20206;-83
2023/01/23 03:45:08;;;;;;;27.83;18.57;;;6.20;99.90;;;;;;5094678;28;20637;-83
2023/01/23 03:47:34;;;;;;;29.95;19.00;;;6.20;99.90;;;;;;5094343;28;20199;-89
2023/01/23 03:50:00;;;;;;;32.20;20.27;;;6.20;99.90;;;;;;5094568;28;20638;-85
2023/01/23 03:52:25;;;;;;;27.53;17.80;;;6.20;99.90;;;;;;5093537;28;20215;-84
2023/01/23 03:54:51;;;;;;;27.70;17.17;;;6.20;99.90;;;;;;5094424;28;20587;-84
2023/01/23 03:57:17;;;;;;;26.57;16.40;;;6.20;99.90;;;;;;5094356;28;20236;-89
2023/01/23 03:59:42;;;;;;;27.17;17.83;;;6.20;99.90;;;;;;5093240;28;20260;-88
2023/01/23 04:02:08;;;;;;;26.40;18.67;;;6.20;99.90;;;;;;5093110;28;20257;-89
2023/01/23 04:04:34;;;;;;;27.03;17.53;;;6.20;99.90;;;;;;5094599;28;20195;-86
2023/01/23 04:07:00;;;;;;;28.27;17.63;;;6.20;99.90;;;;;;5092978;28;20188;-83
2023/01/23 04:09:26;;;;;;;28.48;17.90;;;6.10;99.90;;;;;;5092924;28;20210;-89
2023/01/23 04:11:57;;;;;;;32.60;18.80;;;6.10;99.90;;;;;;5092924;28;20242;-86
2023/01/23 04:14:24;;;;;;;29.30;18.42;;;6.10;99.90;;;;;;5095824;28;20637;-87
2023/01/23 04:16:51;;;;;;;30.77;20.10;;;6.00;99.90;;;;;;5095749;28;20190;-89
2023/01/23 04:19:19;;;;;;;30.27;20.52;;;6.00;99.90;;;;;;5094119;28;20195;-83
2023/01/23 04:21:47;;;;;;;28.90;19.98;;;6.10;99.90;;;;;;5092922;28;20216;-82
2023/01/23 04:24:13;;;;;;;27.40;17.60;;;6.10;99.90;;;;;;5092908;28;20656;-89
2023/01/23 04:26:39;;;;;;;30.52;17.90;;;6.10;99.90;;;;;;5092751;28;20191;-83
2023/01/23 04:29:05;;;;;;;30.93;19.07;;;6.10;99.90;;;;;;5094323;28;20192;-89
2023/01/23 04:31:30;;;;;;;31.07;17.97;;;6.10;99.90;;;;;;5092648;28;20216;-82
2023/01/23 04:33:56;;;;;;;29.53;19.27;;;6.10;99.90;;;;;;5094218;28;20237;-83
2023/01/23 04:36:22;;;;;;;28.93;19.57;;;6.20;99.90;;;;;;5092706;28;20777;-83
2023/01/23 04:38:48;;;;;;;26.90;17.23;;;6.30;99.90;;;;;;5092747;28;20567;-89
2023/01/23 04:41:19;;;;;;;30.65;19.23;;;6.30;99.90;;;;;;5093047;28;20176;-87
2023/01/23 04:43:45;;;;;;;25.88;16.13;;;6.40;99.90;;;;;;5092789;28;20283;-89
2023/01/23 04:46:11;;;;;;;28.50;17.53;;;6.60;99.90;;;;;;5093816;28;20224;-87
2023/01/23 04:48:37;;;;;;;27.10;16.87;;;6.80;99.90;;;;;;5093978;28;20237;-83
2023/01/23 04:51:03;;;;;;;30.03;17.90;;;6.90;99.90;;;;;;5093860;28;20177;-83
2023/01/23 04:53:28;;;;;;;29.20;16.80;;;7.00;99.90;;;;;;5092217;28;20455;-89
2023/01/23 04:55:54;;;;;;;28.20;15.27;;;7.10;99.90;;;;;;5098136;28;20462;-83
2023/01/23 04:58:20;;;;;;;26.10;16.20;;;7.10;99.90;;;;;;5093968;28;20588;-88
2023/01/23 05:00:46;;;;;;;24.10;15.70;;;7.20;99.90;;;;;;5093395;28;20176;-85
2023/01/23 05:03:13;;;;;;;25.30;16.25;;;7.30;99.90;;;;;;5093731;28;20452;-89
2023/01/23 05:05:39;;;;;;;30.73;17.33;;;7.30;99.90;;;;;;5096731;28;20176;-89
2023/01/23 05:08:05;;;;;;;32.73;16.80;;;7.40;99.90;;;;;;5097751;28;20189;-89
2023/01/23 05:10:31;;;;;;;25.97;16.43;;;7.40;99.90;;;;;;5097626;28;20587;-86
2023/01/23 05:12:56;;;;;;;29.70;17.73;;;7.40;99.90;;;;;;5096235;28;20525;-90
2023/01/23 05:15:22;;;;;;;68.23;35.13;;;7.50;99.90;;;;;;5097729;28;20413;-87
2023/01/23 05:17:48;;;;;;;33.73;21.50;;;7.50;99.90;;;;;;5096628;28;20279;-83
2023/01/23 05:20:14;;;;;;;28.52;17.40;;;7.40;99.90;;;;;;5095947;28;20173;-88
2023/01/23 05:22:51;;;;;;;27.50;17.47;;;7.40;99.90;;;;;;5095917;28;20251;-83
2023/01/23 05:25:20;;;;;;;28.77;19.05;;;7.30;99.90;;;;;;5096178;28;20305;-82
2023/01/23 05:27:46;;;;;;;29.48;17.27;;;7.20;99.90;;;;;;5097027;28;20252;-88
2023/01/23 05:30:12;;;;;;;25.93;17.10;;;7.10;99.90;;;;;;5095004;28;20264;-88
2023/01/23 05:32:38;;;;;;;26.58;17.55;;;7.10;99.90;;;;;;5093683;28;20567;-88
2023/01/23 05:35:04;;;;;;;27.27;17.93;;;7.20;99.90;;;;;;5095254;28;20210;-86
2023/01/23 05:37:29;;;;;;;27.20;18.17;;;7.20;99.90;;;;;;5095467;28;20200;-84
2023/01/23 05:39:55;;;;;;;28.03;17.70;;;7.20;99.90;;;;;;5094746;28;20462;-86
2023/01/23 05:42:21;;;;;;;32.10;19.27;;;7.30;99.90;;;;;;5094664;28;20246;-88
2023/01/23 05:44:46;;;;;;;24.93;17.37;;;7.30;99.90;;;;;;5094848;28;20230;-88
2023/01/23 05:47:13;;;;;;;32.37;17.70;;;7.40;99.90;;;;;;5095228;28;20191;-83
2023/01/23 05:49:38;;;;;;;29.55;18.58;;;7.50;99.90;;;;;;5095395;28;20219;-87
2023/01/23 05:52:04;;;;;;;27.60;17.63;;;7.60;99.90;;;;;;5096387;28;20240;-89
2023/01/23 05:54:30;;;;;;;27.87;17.10;;;7.70;99.90;;;;;;5097076;28;20299;-82
2023/01/23 05:56:56;;;;;;;25.97;16.43;;;7.80;99.90;;;;;;5095058;28;20235;-82
2023/01/23 05:59:21;;;;;;;29.83;17.63;;;7.70;99.90;;;;;;5095405;28;20420;-88
2023/01/23 06:01:47;;;;;;;27.27;17.10;;;7.70;99.90;;;;;;5095872;28;20195;-82
2023/01/23 06:04:15;;;;;;;23.73;16.80;;;7.70;99.90;;;;;;5095515;28;20591;-90
2023/01/23 06:06:41;;;;;;;28.88;17.75;;;7.40;99.90;;;;;;5096589;28;20184;-83
2023/01/23 06:09:07;;;;;;;30.67;17.55;;;7.00;99.90;;;;;;5111988;28;20200;-82
2023/01/23 06:11:33;;;;;;;29.33;18.10;;;6.70;99.90;;;;;;5107138;28;20219;-81
2023/01/23 06:13:59;;;;;;;28.60;17.10;;;6.50;99.90;;;;;;5104132;28;20245;-88
2023/01/23 06:16:25;;;;;;;32.13;19.20;;;6.30;99.90;;;;;;5095193;28;20738;-84
2023/01/23 06:18:51;;;;;;;28.00;18.70;;;6.20;99.90;;;;;;5095847;28;20477;-82
2023/01/23 06:21:17;;;;;;;71.47;35.83;;;6.10;99.90;;;;;;5103723;28;20194;-82
2023/01/23 06:23:44;;;;;;;36.80;21.10;;;6.00;99.90;;;;;;5110634;28;20203;-88
2023/01/23 06:26:11;;;;;;;28.33;17.80;;;6.00;99.90;;;;;;5113736;28;20176;-82
2023/01/23 06:28:36;;;;;;;31.58;21.42;;;5.90;99.90;;;;;;5096234;28;20219;-81
2023/01/23 06:31:05;;;;;;;33.10;20.60;;;5.90;99.90;;;;;;5106027;28;20175;-81
2023/01/23 06:33:31;;;;;;;32.08;21.25;;;5.90;99.90;;;;;;5110369;28;20215;-82
2023/01/23 06:35:58;;;;;;;28.92;20.35;;;5.90;99.90;;;;;;5112672;28;20171;-88
2023/01/23 06:38:24;;;;;;;30.77;19.63;;;5.90;99.90;;;;;;5110771;28;20188;-88
2023/01/23 06:40:50;;;;;;;30.17;19.40;;;5.90;99.90;;;;;;5092655;28;20203;-85
2023/01/23 06:43:16;;;;;;;33.27;20.10;;;5.90;99.90;;;;;;5093193;28;20949;-81
2023/01/23 06:45:45;;;;;;;28.20;17.97;;;5.90;99.90;;;;;;5091352;28;20526;-82
2023/01/23 06:48:12;;;;;;;26.60;18.33;;;6.00;99.90;;;;;;5094287;28;20206;-82
2023/01/23 06:50:39;;;;;;;30.90;19.00;;;6.00;99.90;;;;;;5092582;28;20177;-86
2023/01/23 06:53:04;;;;;;;31.98;19.23;;;6.00;99.90;;;;;;5092770;28;20224;-82
2023/01/23 06:55:31;;;;;;;34.77;21.10;;;5.90;99.90;;;;;;5093563;28;20264;-83
2023/01/23 06:57:57;;;;;;;35.40;22.40;;;5.90;99.90;;;;;;5098225;28;20345;-81
2023/01/23 07:00:23;;;;;;;34.70;22.63;;;5.90;99.90;;;;;;5096388;28;20267;-82
2023/01/23 07:02:49;;;;;;;30.57;20.30;;;5.90;99.90;;;;;;5100135;28;20197;-82
2023/01/23 07:05:15;;;;;;;32.90;22.30;;;5.90;99.90;;;;;;5102876;28;20259;-88
2023/01/23 07:07:40;;;;;;;31.03;19.80;;;5.90;99.90;;;;;;5104059;28;20279;-88
2023/01/23 07:10:07;;;;;;;35.33;21.17;;;6.00;99.90;;;;;;5110863;28;20557;-88
2023/01/23 07:12:33;;;;;;;32.35;20.27;;;6.10;99.90;;;;;;5113239;28;20680;-82
2023/01/23 07:14:58;;;;;;;27.33;20.33;;;6.10;99.90;;;;;;5101369;28;20187;-82
2023/01/23 07:17:24;;;;;;;31.00;19.73;;;6.10;99.90;;;;;;5099590;28;20428;-83
2023/01/23 07:19:50;;;;;;;30.87;20.73;;;6.20;99.90;;;;;;5102316;28;20278;-82
2023/01/23 07:22:18;;;;;;;28.70;18.63;;;6.30;99.90;;;;;;5099250;28;20508;-87
2023/01/23 07:24:46;;;;;;;36.15;20.35;;;6.30;99.90;;;;;;5097421;28;20955;-88
2023/01/23 07:27:12;;;;;;;30.38;20.45;;;6.30;99.90;;;;;;5095801;28;20237;-83
2023/01/23 07:29:38;;;;;;;27.15;19.40;;;6.30;99.90;;;;;;5108927;28;20202;-88
2023/01/23 07:32:04;;;;;;;26.17;18.90;;;6.30;99.90;;;;;;5095575;28;20216;-88
2023/01/23 07:34:30;;;;;;;28.60;19.63;;;6.30;99.90;;;;;;5091984;28;20191;-82
2023/01/23 07:36:55;;;;;;;24.83;17.10;;;6.40;99.90;;;;;;5089375;28;20624;-90
2023/01/23 07:39:21;;;;;;;27.40;19.03;;;6.40;99.90;;;;;;5091148;28;20180;-82
2023/01/23 07:41:47;;;;;;;28.67;18.60;;;6.50;99.90;;;;;;5095472;28;20184;-88
2023/01/23 07:44:19;;;;;;;29.30;19.90;;;6.60;99.90;;;;;;5082743;28;20421;-88
2023/01/23 07:46:45;;;;;;;30.67;21.13;;;6.60;99.90;;;;;;5084927;28;20519;-82
2023/01/23 07:49:12;;;;;;;29.65;20.20;;;6.60;99.90;;;;;;5079250;28;20458;-89
2023/01/23 07:51:38;;;;;;;27.05;17.38;;;6.70;99.90;;;;;;5072156;28;20349;-88
2023/01/23 07:54:04;;;;;;;26.80;17.47;;;6.70;99.90;;;;;;5071303;28;20204;-87
2023/01/23 07:56:30;;;;;;;30.23;19.50;;;6.80;99.90;;;;;;5072833;28;20482;-88
2023/01/23 07:58:55;;;;;;;24.97;17.00;;;6.90;99.90;;;;;;5072254;28;20211;-87
2023/01/23 08:01:21;;;;;;;26.30;17.40;;;6.90;99.90;;;;;;5075262;28;21114;-81
2023/01/23 08:03:47;;;;;;;27.63;18.00;;;7.00;99.90;;;;;;5069912;28;20222;-81
2023/01/23 08:06:13;;;;;;;23.67;15.83;;;7.00;99.90;;;;;;5073571;28;20184;-89
2023/01/23 08:08:39;;;;;;;24.60;15.50;;;7.00;99.90;;;;;;5073593;28;20455;-90
2023/01/23 08:11:06;;;;;;;30.47;18.23;;;7.10;99.90;;;;;;5074199;28;20427;-89
2023/01/23 08:13:32;;;;;;;27.73;16.33;;;7.10;99.90;;;;;;5072734;28;20875;-90
2023/01/23 08:15:58;;;;;;;28.80;19.60;;;7.10;99.90;;;;;;5085500;28;20180;-82
2023/01/23 08:18:25;;;;;;;23.92;15.68;;;7.10;99.90;;;;;;5103158;28;20245;-89
2023/01/23 08:21:00;;;;;;;27.02;17.30;;;7.10;99.90;;;;;;5111961;28;20225;-88
2023/01/23 08:23:35;;;;;;;22.20;15.93;;;7.20;99.90;;;;;;5088549;28;20199;-82
2023/01/23 08:26:04;;;;;;;24.65;16.17;;;7.30;99.90;;;;;;5091182;28;20160;-83
2023/01/23 08:28:31;;;;;;;24.95;15.55;;;7.30;99.90;;;;;;5086668;28;20249;-83
2023/01/23 08:31:06;;;;;;;23.58;17.17;;;7.50;99.90;;;;;;5087973;28;20184;-83
2023/01/23 08:33:33;;;;;;;26.55;16.05;;;7.60;99.90;;;;;;5089117;28;20739;-88
2023/01/23 08:35:59;;;;;;;23.23;14.75;;;7.70;99.90;;;;;;5103278;28;20221;-82
2023/01/23 08:38:29;;;;;;;23.35;15.15;;;7.70;99.90;;;;;;5105505;28;20611;-87
2023/01/23 08:40:59;;;;;;;22.75;16.27;;;7.80;99.90;;;;;;5098765;28;20709;-83
2023/01/23 08:43:24;;;;;;;27.02;17.50;;;7.90;99.90;;;;;;5092331;28;20253;-83
2023/01/23 08:45:54;;;;;;;25.77;16.33;;;8.20;99.90;;;;;;5102350;28;20184;-82
2023/01/23 08:48:21;;;;;;;21.63;15.32;;;8.40;99.90;;;;;;5103649;28;20467;-90
2023/01/23 08:50:47;;;;;;;21.73;15.13;;;8.60;99.90;;;;;;5112178;28;20636;-88
2023/01/23 08:53:14;;;;;;;22.17;14.97;;;8.80;99.90;;;;;;5112536;28;20230;-81
2023/01/23 08:55:40;;;;;;;21.50;15.23;;;9.00;99.90;;;;;;5107280;28;21270;-82
2023/01/23 08:58:07;;;;;;;23.67;16.80;;;9.20;99.90;;;;;;5098223;28;20212;-83
2023/01/23 09:00:33;;;;;;;17.60;13.10;;;9.50;99.90;;;;;;5106829;28;20504;-82
2023/01/23 09:03:00;;;;;;;17.75;12.10;;;9.90;99.90;;;;;;5096537;28;20215;-90
2023/01/23 09:05:27;;;;;;;16.73;12.68;;;10.40;99.90;;;;;;5098964;28;20169;-88
2023/01/23 09:07:54;;;;;;;18.42;12.48;;;10.80;99.90;;;;;;5103224;28;20253;-83
2023/01/23 09:10:19;;;;;;;15.57;12.95;;;11.30;99.90;;;;;;5105120;28;20195;-89
2023/01/23 09:12:45;;;;;;;13.98;11.63;;;11.80;99.90;;;;;;5097420;28;20232;-90
2023/01/23 09:15:11;;;;;;;15.93;13.30;;;12.00;99.90;;;;;;5095888;28;20171;-89
2023/01/23 09:17:37;;;;;;;18.87;13.67;;;12.10;99.90;;;;;;5096901;28;20219;-89
2023/01/23 09:20:05;;;;;;;17.03;14.00;;;12.00;99.90;;;;;;5092496;28;20977;-82
2023/01/23 09:22:31;;;;;;;17.77;12.75;;;11.90;99.90;;;;;;5105706;28;20194;-83
2023/01/23 09:24:57;;;;;;;17.97;13.77;;;12.00;99.90;;;;;;5096079;28;20551;-82
2023/01/23 09:27:23;;;;;;;16.73;12.93;;;11.90;99.90;;;;;;5111723;28;20451;-84
2023/01/23 09:29:49;;;;;;;17.50;12.93;;;11.70;99.90;;;;;;5101734;28;20179;-89
2023/01/23 09:32:16;;;;;;;17.70;12.50;;;11.50;99.90;;;;;;5107534;28;20468;-83
2023/01/23 09:34:42;;;;;;;18.13;12.65;;;11.40;99.90;;;;;;5098693;28;20176;-89
2023/01/23 09:37:08;;;;;;;18.73;13.70;;;11.20;99.90;;;;;;5097254;28;20258;-83
2023/01/23 09:39:34;;;;;;;19.63;14.00;;;11.10;99.90;;;;;;5093213;28;20196;-88
2023/01/23 09:42:08;;;;;;;15.97;11.83;;;11.10;99.90;;;;;;5095539;28;20179;-89
2023/01/23 09:44:51;;;;;;;15.43;11.48;;;11.10;99.90;;;;;;5098431;28;20198;-84
2023/01/23 09:47:25;;;;;;;18.80;12.98;;;11.10;99.90;;;;;;5106743;28;20379;-90
2023/01/23 09:49:59;;;;;;;19.13;13.55;;;11.20;99.90;;;;;;5112562;28;20195;-90
2023/01/23 09:52:33;;;;;;;19.02;12.90;;;11.40;99.90;;;;;;5105786;28;20261;-82
2023/01/23 09:55:17;;;;;;;16.98;12.70;;;11.50;99.90;;;;;;5103099;28;20180;-90
2023/01/23 09:57:51;;;;;;;17.20;12.75;;;11.60;99.90;;;;;;5104546;28;20572;-90
2023/01/23 10:00:26;;;;;;;17.33;12.13;;;11.70;99.90;;;;;;5101780;28;20186;-82
2023/01/23 10:02:53;;;;;;;16.63;12.77;;;11.80;99.90;;;;;;5098148;28;20235;-84
2023/01/23 10:05:35;;;;;;;15.38;12.18;;;11.90;99.90;;;;;;5101604;28;20724;-83
2023/01/23 10:08:23;;;;;;;14.60;12.15;;;12.10;99.90;;;;;;5104161;28;20788;-83
2023/01/23 10:11:14;;;;;;;19.13;13.57;;;12.20;99.90;;;;;;5099576;28;20687;-90
2023/01/23 10:14:21;;;;;;;15.85;12.65;;;12.20;99.90;;;;;;5101629;28;20231;-84
2023/01/23 10:17:09;;;;;;;19.23;12.40;;;12.20;99.90;;;;;;5098649;28;20172;-83
2023/01/23 10:19:58;;;;;;;17.80;12.67;;;12.10;99.90;;;;;;5111040;28;20306;-83
2023/01/23 10:22:46;;;;;;;15.75;12.63;;;12.10;99.90;;;;;;5095250;28;21000;-85
2023/01/23 10:25:39;;;;;;;18.93;13.23;;;12.10;99.90;;;;;;5099495;28;20263;-82
2023/01/23 10:28:37;;;;;;;16.73;12.83;;;12.00;99.90;;;;;;5092925;28;20993;-83
2023/01/23 10:31:22;;;;;;;19.08;13.35;;;12.00;99.90;;;;;;5105126;28;20420;-83
2023/01/23 10:33:55;;;;;;;17.20;12.00;;;11.90;99.90;;;;;;5111838;28;20208;-90
2023/01/23 10:36:25;;;;;;;22.27;12.70;;;11.90;99.90;;;;;;5099406;28;20424;-83
2023/01/23 10:39:01;;;;;;;15.50;11.93;;;11.90;99.90;;;;;;5104337;28;20225;-90
2023/01/23 10:41:27;;;;;;;18.85;13.18;;;11.80;99.90;;;;;;5101626;28;20171;-90
2023/01/23 10:43:55;;;;;;;13.40;11.75;;;11.80;99.90;;;;;;5095674;28;20238;-84
2023/01/23 10:46:21;;;;;;;14.88;11.98;;;11.80;99.90;;;;;;5097104;28;20226;-90
2023/01/23 10:48:52;;;;;;;14.97;11.40;;;11.90;99.90;;;;;;5107286;28;20216;-83
2023/01/23 10:51:25;;;;;;;13.57;11.23;;;12.00;99.90;;;;;;5099771;28;20183;-83
2023/01/23 10:54:10;;;;;;;13.80;11.18;;;12.10;99.90;;;;;;5091345;28;20204;-90
2023/01/23 10:56:58;;;;;;;16.40;12.63;;;12.10;99.90;;;;;;5094557;28;20220;-83
2023/01/23 10:59:49;;;;;;;16.67;12.10;;;12.10;99.90;;;;;;5052605;28;20425;-82
2023/01/23 11:02:14;;;;;;;16.88;11.70;;;12.10;99.90;;;;;;5096559;28;20551;-83
2023/01/23 11:04:42;;;;;;;16.20;11.83;;;12.10;99.90;;;;;;5092426;28;20247;-89
2023/01/23 11:07:14;;;;;;;19.00;12.03;;;12.10;99.90;;;;;;5095623;28;20261;-90
2023/01/23 11:09:47;;;;;;;14.15;12.15;;;12.10;99.90;;;;;;5104839;28;20879;-91
2023/01/23 11:12:22;;;;;;;15.35;11.75;;;12.10;99.90;;;;;;5098600;28;20211;-91
2023/01/23 11:14:48;;;;;;;14.07;11.85;;;12.10;99.90;;;;;;5097316;28;20236;-91
2023/01/23 11:17:31;;;;;;;15.80;12.80;;;12.10;99.90;;;;;;5092185;28;20703;-89
2023/01/23 11:19:58;;;;;;;18.83;13.43;;;12.10;99.90;;;;;;5094819;28;20471;-90
2023/01/23 11:22:33;;;;;;;15.88;11.65;;;12.10;99.90;;;;;;5097190;28;21927;-86
2023/01/23 11:24:59;;;;;;;15.85;12.35;;;12.10;99.90;;;;;;5099399;28;20262;-91
2023/01/23 11:27:29;;;;;;;19.10;12.27;;;12.10;99.90;;;;;;5094351;28;20287;-84
2023/01/23 11:30:07;;;;;;;57.30;33.77;;;12.10;99.90;;;;;;5106183;28;20397;-85
2023/01/23 11:32:45;;;;;;;17.88;13.15;;;12.20;99.90;;;;;;5108328;28;20554;-89
2023/01/23 11:35:15;;;;;;;18.25;12.60;;;12.20;99.90;;;;;;5101065;28;20160;-83
2023/01/23 11:37:42;;;;;;;19.03;13.10;;;12.40;99.90;;;;;;5099036;28;20744;-83
2023/01/23 11:40:16;;;;;;;21.47;15.30;;;12.40;99.90;;;;;;5106029;28;20485;-90
2023/01/23 11:42:43;;;;;;;18.37;11.97;;;12.60;99.90;;;;;;5100331;28;20423;-90
2023/01/23 11:45:19;;;;;;;17.80;12.40;;;12.60;99.90;;;;;;5100389;28;20515;-91
2023/01/23 11:48:28;;;;;;;16.33;12.73;;;12.80;99.90;;;;;;5097246;28;20781;-84
2023/01/23 11:51:07;;;;;;;14.77;11.27;;;12.90;99.90;;;;;;5061432;28;20803;-92
2023/01/23 11:53:42;;;;;;;11.37;9.20;;;13.10;99.90;;;;;;5106323;28;21012;-84
2023/01/23 11:56:16;;;;;;;12.70;10.30;;;13.20;99.90;;;;;;5102278;28;20543;-84
2023/01/23 11:58:55;;;;;;;14.10;10.63;;;13.20;99.90;;;;;;5105812;28;20438;-92
2023/01/23 12:01:45;;;;;;;13.10;11.00;;;13.30;99.90;;;;;;5108525;28;20448;-84
2023/01/23 12:04:50;;;;;;;16.33;12.53;;;13.50;99.90;;;;;;5068798;28;20475;-91
2023/01/23 12:07:23;;;;;;;13.50;9.97;;;13.50;99.90;;;;;;5091749;28;20443;-83
2023/01/23 12:10:04;;;;;;;13.00;10.27;;;13.50;99.90;;;;;;5100643;28;20829;-83
2023/01/23 12:12:51;;;;;;;13.30;10.67;;;13.60;99.90;;;;;;5090725;28;20472;-91
2023/01/23 12:15:26;;;;;;;13.47;10.53;;;13.60;99.90;;;;;;5095993;28;20810;-84
2023/01/23 12:18:27;;;;;;;13.70;11.43;;;13.70;99.90;;;;;;5092957;28;20552;-92
2023/01/23 12:21:07;;;;;;;15.40;11.53;;;13.80;99.90;;;;;;5083183;28;20434;-92
2023/01/23 12:23:51;;;;;;;14.17;11.57;;;13.90;99.90;;;;;;5087661;28;21163;-85
2023/01/23 12:26:23;;;;;;;13.80;10.73;;;14.00;99.90;;;;;;5091478;28;20418;-92
2023/01/23 12:29:09;;;;;;;14.87;12.00;;;14.00;99.90;;;;;;5088473;28;20433;-84
2023/01/23 12:32:03;;;;;;;14.10;11.00;;;14.00;99.90;;;;;;5087672;28;20419;-91
2023/01/23 12:34:43;;;;;;;14.93;10.60;;;14.00;99.90;;;;;;5091493;28;20855;-84
2023/01/23 12:37:38;;;;;;;13.00;10.57;;;13.90;99.90;;;;;;5095451;28;20808;-91
2023/01/23 12:40:31;;;;;;;12.60;10.27;;;13.80;99.90;;;;;;5107114;28;20387;-92
2023/01/23 12:43:02;;;;;;;16.47;11.40;;;13.90;99.90;;;;;;5091627;28;20594;-84
2023/01/23 12:45:31;;;;;;;15.13;10.50;;;13.80;99.90;;;;;;5096820;28;20459;-91
2023/01/23 12:48:13;;;;;;;14.63;10.47;;;13.90;99.90;;;;;;5099621;28;21001;-83
2023/01/23 12:50:44;;;;;;;13.70;10.83;;;13.80;99.90;;;;;;5099612;28;20424;-92